Latest Coastal Weather Observations for Port Hedland

IDW60701

Issued at 7:51 pm WST Tuesday 24 May 2016 (issued every 10 minutes, with the page automatically refreshed every 10 minutes)

About coastal observations | Map of coastal stations | Coastal observations for WA | Marine services | Other Formats
Station Details ID: 004032 Name: PORT HEDLAND AIRPORT Lat: -20.37 Lon: 118.63 Height: 6.4 m
Data from the previous 72 hours. | See also: Recent months at Port Hedland
Date/Time
WST
Temp

°C
Wind Pressure Rain
since 9am
mm
Weather Cloud Vis
km
Sea
Height
m
Swell
Dir
 
Speed
knots
Gust
knots
hPa Trend Height
m
Period
s
Dir
24/07:30pm 23.7 NNW 6 7 1013.9 - 0.0 - - 10 - - - -
24/07:00pm 24.0 NW 6 6 1013.8 - 0.0 - - 10 - - - -
24/06:30pm 24.6 NNW 7 9 1013.5 - 0.0 - - 10 - - - -
24/06:00pm 25.1 NNW 8 9 1013.1 - 0.0 - - 10 - - - -
24/05:30pm 25.9 NNW 10 11 1012.9 - 0.0 - - 10 - - - -
24/05:00pm 26.8 N 11 13 1012.7 - 0.0 - - 10 - - - -
24/04:30pm 27.6 NNW 11 13 1012.6 - 0.0 - - 10 - - - -
24/04:00pm 28.0 NNW 11 14 1012.6 - 0.0 - - 10 - - - -
24/03:30pm 28.2 N 11 14 1012.5 - 0.0 - - 10 - - - -
24/03:00pm 28.3 N 12 15 1012.4 - 0.0 - Mostly clear 10 - - - -
24/02:30pm 28.7 NNW 12 15 1012.5 - 0.0 - Mostly clear 10 - - - -
24/02:00pm 29.3 N 11 14 1012.7 - 0.0 - Mostly clear 10 - - - -
24/01:30pm 29.6 N 9 13 1013.1 - 0.0 - Mostly clear 10 - - - -
24/01:00pm 29.1 N 9 13 1013.4 - 0.0 - Mostly clear 10 - - - -
24/12:30pm 29.5 NNE 10 12 1013.8 - 0.0 - Mostly clear 10 - - - -
24/12:00pm 28.2 NNE 10 12 1014.2 - 0.0 - Mostly clear 10 - - - -
24/11:30am 28.2 NNE 7 10 1014.8 - 0.0 - Mostly clear 10 - - - -
24/11:00am 27.9 NNE 9 11 1015.2 - 0.0 - Mostly clear 10 - - - -
24/10:30am 28.2 ENE 8 11 1015.4 - 0.0 - - 10 - - - -
24/10:00am 27.5 NE 10 12 1015.7 - 0.0 - Mostly clear 10 - - - -
24/09:30am 27.3 ENE 10 12 1015.8 - 0.0 - Mostly clear 10 - - - -
24/09:00am 26.3 E 9 13 1015.8 - 0.0 - Mostly clear 10 - - - -
24/08:30am 25.3 E 10 12 1015.7 - 0.0 - Mostly clear 10 - - - -
24/08:00am 23.6 E 11 13 1015.4 - 0.0 - Mostly clear 10 - - - -
24/07:30am 21.9 ESE 9 13 1015.1 - 0.0 - Mostly clear 10 - - - -
24/07:00am 20.4 SE 7 9 1015.0 - 0.0 - Mostly clear 10 - - - -
24/06:30am 20.1 SE 6 8 1014.8 - 0.0 - Mostly clear 10 - - - -
24/06:00am 20.2 ESE 6 8 1014.6 - 0.0 - Mostly clear 10 - - - -
24/05:30am 20.1 ESE 7 9 1014.4 - 0.0 - - 10 - - - -
24/05:00am 20.6 ESE 7 9 1014.2 - 0.0 - - 10 - - - -
24/04:30am 20.9 SE 7 8 1014.3 - 0.0 - - 10 - - - -
24/04:00am 20.4 SE 5 6 1014.2 - 0.0 - - 10 - - - -
24/03:30am 21.0 SE 5 7 1014.1 - 0.0 - - 10 - - - -
24/03:00am 21.5 SE 5 6 1014.1 - 0.0 - - 10 - - - -
24/02:30am 21.3 E 6 7 1014.0 - 0.0 - - 10 - - - -
24/02:00am 21.9 ESE 6 7 1014.1 - 0.0 - - 10 - - - -
24/01:30am 21.6 E 6 8 1014.4 - 0.0 - - 10 - - - -
24/01:00am 22.2 SE 5 7 1014.6 - 0.0 - - 10 - - - -
24/12:30am 21.7 E 5 5 1014.6 - 0.0 - - 10 - - - -
24/12:00am 21.7 E 5 6 1014.7 - 0.0 - - 10 - - - -
 
Date/Time
WST
Temp

°C
Wind Pressure Rain
since 9am
mm
Weather Cloud Vis
km
Sea
Height
m
Swell
Dir
 
Speed
knots
Gust
knots
hPa Trend Height
m
Period
s
Dir
23/11:30pm 21.9 ENE 5 6 1014.7 - 0.0 - - 10 - - - -
23/11:00pm 22.9 E 5 6 1015.0 - 0.0 - - 10 - - - -
23/10:30pm 22.8 ENE 4 4 1015.1 - 0.0 - - 10 - - - -
23/10:00pm 23.1 ENE 4 5 1015.3 - 0.0 - - 10 - - - -
23/09:30pm 24.3 NE 5 6 1015.4 - 0.0 - - 10 - - - -
23/09:00pm 24.7 NE 7 8 1015.1 - 0.0 - - 10 - - - -
23/08:30pm 24.9 NE 8 10 1015.1 - 0.0 - - 10 - - - -
23/08:00pm 24.9 NNE 7 9 1015.0 - 0.0 - - 10 - - - -
23/07:30pm 25.1 NNE 7 9 1014.7 - 0.0 - - 10 - - - -
23/07:00pm 25.3 N 10 12 1014.4 - 0.0 - - 10 - - - -
23/06:30pm 25.4 N 11 13 1014.1 - 0.0 - - 10 - - - -
23/06:00pm 25.5 N 10 12 1013.8 - 0.0 - - 10 - - - -
23/05:30pm 25.9 N 11 14 1013.6 - 0.0 - - 10 - - - -
23/05:00pm 26.6 N 11 13 1013.8 - 0.0 - - 10 - - - -
23/04:30pm 27.1 N 13 16 1013.7 - 0.0 - - 10 - - - -
23/04:00pm 28.1 N 12 15 1013.4 - 0.0 - - 10 - - - -
23/03:30pm 28.4 N 13 14 1013.3 - 0.0 - - 10 - - - -
23/03:00pm 29.6 NNE 13 15 1013.3 - 0.0 - - 10 - - - -
23/02:30pm 29.1 N 14 16 1013.3 - 0.0 - - 10 - - - -
23/02:00pm 31.3 NNE 13 16 1013.4 - 0.0 - - 10 - - - -
23/01:30pm 32.3 E 10 17 1013.7 - 0.0 - - 10 - - - -
23/01:00pm 31.9 ENE 11 15 1014.4 - 0.0 - - 10 - - - -
23/12:30pm 30.8 ESE 7 12 1015.1 - 0.0 - - 10 - - - -
23/12:00pm 30.7 ESE 9 15 1015.7 - 0.0 - - 10 - - - -
23/11:30am 29.8 ESE 11 16 1016.2 - 0.0 - - 10 - - - -
23/11:00am 29.6 ENE 12 15 1016.6 - 0.0 - - 10 - - - -
23/10:30am 29.1 E 12 16 1016.9 - 0.0 - - 10 - - - -
23/10:00am 27.9 ESE 13 18 1016.9 - 0.0 - - 10 - - - -
23/09:30am 26.9 ESE 16 21 1016.8 - 0.0 - - 10 - - - -
23/09:00am 26.4 ESE 15 20 1016.7 - 0.0 - - 10 - - - -
23/08:30am 25.3 ESE 12 18 1016.3 - 0.0 - - 10 - - - -
23/08:00am 24.0 SE 10 14 1016.1 - 0.0 - - 10 - - - -
23/07:30am 21.9 SSE 6 8 1016.1 - 0.0 - - 10 - - - -
23/07:00am 20.9 SE 7 9 1015.9 - 0.0 - - 10 - - - -
23/06:30am 20.2 ESE 8 10 1015.3 - 0.0 - - 10 - - - -
23/06:00am 20.6 SE 8 11 1015.1 - 0.0 - - 10 - - - -
23/05:30am 20.5 SE 9 11 1015.0 - 0.0 - - 10 - - - -
23/05:00am 18.6 E 8 9 1014.8 - 0.0 - - 10 - - - -
23/04:30am 20.1 ESE 7 8 1014.8 - 0.0 - - 10 - - - -
23/04:00am 19.4 ESE 5 7 1014.8 - 0.0 - - 10 - - - -
23/03:30am 18.9 E 6 8 1014.5 - 0.0 - - 10 - - - -
23/03:00am 17.9 ESE 5 7 1014.8 - 0.0 - - 10 - - - -
23/02:30am 19.4 CALM 0 0 1014.8 - 0.0 - - 10 - - - -
23/02:00am 19.4 CALM 0 0 1014.8 - 0.0 - - 10 - - - -
23/01:30am 20.5 S 4 5 1014.8 - 0.0 - - 10 - - - -
23/01:00am 21.0 SSW 6 6 1015.1 - 0.0 - - 10 - - - -
23/12:30am 21.1 SW 6 7 1015.2 - 0.0 - - 10 - - - -
23/12:00am 21.5 SSW 7 8 1015.2 - 0.0 - - 10 - - - -
 
Date/Time
WST
Temp

°C
Wind Pressure Rain
since 9am
mm
Weather Cloud Vis
km
Sea
Height
m
Swell
Dir
 
Speed
knots
Gust
knots
hPa Trend Height
m
Period
s
Dir
22/11:30pm 21.8 SSW 7 8 1015.3 - 0.0 - - 10 - - - -
22/11:00pm 22.6 S 8 12 1015.5 - 0.0 - - 10 - - - -
22/10:30pm 22.2 SSW 7 8 1015.0 - 0.0 - - 10 - - - -
22/10:00pm 22.2 WSW 5 6 1014.9 - 0.0 - - 10 - - - -
22/09:30pm 22.7 W 4 5 1014.7 - 0.0 - - 10 - - - -
22/09:00pm 23.8 SSW 3 5 1014.7 - 0.0 - - 10 - - - -
22/08:30pm 24.3 SSE 3 4 1014.6 - 0.0 - - 10 - - - -
22/08:00pm 24.5 SSW 3 4 1014.5 - 0.0 - - 10 - - - -
22/07:30pm 24.2 W 5 7 1014.0 - 0.0 - - 10 - - - -
22/07:00pm 24.4 WNW 6 7 1013.5 - 0.0 - - 10 - - - -
22/06:30pm 25.6 WNW 7 9 1013.0 - 0.0 - - 10 - - - -
22/06:00pm 25.9 WNW 9 12 1012.7 - 0.0 - - 10 - - - -
22/05:30pm 26.7 WNW 10 13 1012.4 - 0.0 - - 10 - - - -
22/05:00pm 27.7 NW 11 13 1012.1 - 0.0 - - 10 - - - -
22/04:30pm 28.6 NNW 12 14 1012.1 - 0.0 - - 10 - - - -
22/04:00pm 29.4 NNW 13 16 1012.1 - 0.0 - - 10 - - - -
22/03:30pm 29.6 NNW 13 16 1012.0 - 0.0 - - 10 - - - -
22/03:00pm 30.4 NNW 12 14 1012.0 - 0.0 - - 10 - - - -
22/02:30pm 31.0 NNW 11 14 1012.2 - 0.0 - - 10 - - - -
22/02:00pm 32.2 NNE 11 13 1012.4 - 0.0 - - 10 - - - -
22/01:30pm 31.9 SSW 4 9 1012.7 - 0.0 - - 10 - - - -
22/01:00pm 31.3 SW 7 15 1013.0 - 0.0 - - 10 - - - -
22/12:30pm 32.0 SW 8 11 1013.4 - 0.0 - - 10 - - - -
22/12:00pm 30.9 SW 7 11 1013.9 - 0.0 - - 10 - - - -
22/11:30am 30.5 S 6 12 1014.3 - 0.0 - - 10 - - - -
22/11:00am 30.6 SSE 7 12 1014.7 - 0.0 - - 10 - - - -
22/10:30am 29.5 S 6 10 1014.8 - 0.0 - - 10 - - - -
22/10:00am 28.7 SSW 7 9 1014.9 - 0.0 - - 10 - - - -
22/09:30am 27.9 SW 7 10 1015.0 - 0.0 - - 10 - - - -
22/09:00am 26.1 SW 7 9 1015.0 - 0.2 - - 10 - - - -
22/08:30am 24.8 SSW 6 8 1014.7 - 0.2 - - 10 - - - -
22/08:00am 22.6 SW 8 10 1014.4 - 0.2 - - 10 - - - -
22/07:30am 20.5 SSW 7 9 1013.8 - 0.2 - - 10 - - - -
22/07:00am 18.7 SW 6 7 1013.6 - 0.2 - - 10 - - - -
22/06:30am 18.0 SW 6 7 1013.5 - 0.2 - - 10 - - - -
22/06:00am 18.5 WSW 9 10 1013.3 - 0.2 - - 10 - - - -
22/05:30am 19.0 WSW 8 9 1012.9 - 0.2 - - 10 - - - -
22/05:00am 18.7 WSW 8 9 1012.7 - 0.2 - - 10 - - - -
22/04:30am 18.5 WSW 8 9 1012.6 - 0.2 - - 10 - - - -
22/04:00am 18.7 W 7 7 1012.3 - 0.2 - - 10 - - - -
22/03:30am 19.0 W 7 8 1012.2 - 0.2 - - 10 - - - -
22/03:00am 19.0 W 7 8 1011.9 - 0.2 - - 10 - - - -
22/02:30am 18.9 W 7 7 1011.9 - 0.2 - - 10 - - - -
22/02:00am 19.5 W 6 7 1012.1 - 0.2 - - 10 - - - -
22/01:30am 19.9 WNW 8 8 1012.4 - 0.2 - - 10 - - - -
22/01:00am 20.8 WNW 8 9 1012.6 - 0.2 - - 10 - - - -
22/12:30am 20.8 WNW 8 9 1012.6 - 0.2 - - 10 - - - -
22/12:00am 21.8 W 8 9 1012.8 - 0.2 - - 10 - - - -
 
Date/Time
WST
Temp

°C
Wind Pressure Rain
since 9am
mm
Weather Cloud Vis
km
Sea
Height
m
Swell
Dir
 
Speed
knots
Gust
knots
hPa Trend Height
m
Period
s
Dir
21/11:30pm 22.7 W 9 11 1012.9 - 0.2 - - 10 - - - -
21/11:00pm 23.0 WNW 10 11 1013.1 - 0.2 - - 10 - - - -
21/10:30pm 23.3 WNW 10 11 1013.3 - 0.2 - - 10 - - - -
21/10:00pm 23.3 WNW 9 11 1013.3 - 0.2 - - 10 - - - -
21/09:30pm 23.1 WNW 9 11 1013.4 - 0.2 - - 10 - - - -
21/09:00pm 23.3 WNW 9 10 1013.3 - 0.2 - - 10 - - - -
21/08:30pm 23.5 W 9 11 1013.2 - 0.2 - - 10 - - - -
21/08:00pm 24.0 W 8 11 1013.0 - 0.2 - - 10 - - - -

Other Formats:

Comma delimited format used in spreadsheet applications
http://www.bom.gov.au/fwo/IDW60701/IDW60701.94312.axf

JavaScript Object Notation format (JSON) in row-major order
http://www.bom.gov.au/fwo/IDW60701/IDW60701.94312.json